sensor_id;sensor_type;location;lat;lon;timestamp;pressure;altitude;pressure_sealevel;temperature;humidity
58243;BME280;50118;53.232;8.252;2022-09-09T00:07:44;100667.06;;;12.42;100.00
58243;BME280;50118;53.232;8.252;2022-09-09T00:10:23;100657.00;;;12.36;100.00
58243;BME280;50118;53.232;8.252;2022-09-09T00:12:57;100662.34;;;12.36;100.00
58243;BME280;50118;53.232;8.252;2022-09-09T00:15:39;100667.69;;;12.36;100.00
58243;BME280;50118;53.232;8.252;2022-09-09T00:21:14;100667.78;;;12.26;100.00
58243;BME280;50118;53.232;8.252;2022-09-09T00:23:53;100666.59;;;12.20;100.00
58243;BME280;50118;53.232;8.252;2022-09-09T00:26:42;100659.56;;;12.11;100.00
58243;BME280;50118;53.232;8.252;2022-09-09T00:29:58;100662.69;;;12.06;100.00
58243;BME280;50118;53.232;8.252;2022-09-09T00:35:36;100657.66;;;12.03;100.00
58243;BME280;50118;53.232;8.252;2022-09-09T00:38:18;100656.16;;;12.01;100.00
58243;BME280;50118;53.232;8.252;2022-09-09T00:44:02;100672.09;;;11.92;100.00
58243;BME280;50118;53.232;8.252;2022-09-09T00:46:44;100673.59;;;11.95;100.00
58243;BME280;50118;53.232;8.252;2022-09-09T00:56:14;100660.00;;;11.88;100.00
58243;BME280;50118;53.232;8.252;2022-09-09T01:02:10;100661.63;;;11.81;100.00
58243;BME280;50118;53.232;8.252;2022-09-09T01:04:41;100660.66;;;11.82;100.00
58243;BME280;50118;53.232;8.252;2022-09-09T01:07:16;100665.34;;;11.88;100.00
58243;BME280;50118;53.232;8.252;2022-09-09T01:13:13;100658.66;;;11.84;100.00
58243;BME280;50118;53.232;8.252;2022-09-09T01:15:42;100661.09;;;11.77;100.00
58243;BME280;50118;53.232;8.252;2022-09-09T01:18:30;100654.56;;;11.72;100.00
58243;BME280;50118;53.232;8.252;2022-09-09T01:27:13;100651.53;;;11.67;100.00
58243;BME280;50118;53.232;8.252;2022-09-09T01:29:23;100643.97;;;11.62;100.00
58243;BME280;50118;53.232;8.252;2022-09-09T01:32:02;100643.16;;;11.62;100.00
58243;BME280;50118;53.232;8.252;2022-09-09T01:34:32;100647.84;;;11.68;100.00
58243;BME280;50118;53.232;8.252;2022-09-09T01:37:05;100637.13;;;11.59;100.00
58243;BME280;50118;53.232;8.252;2022-09-09T01:39:34;100636.44;;;11.57;100.00
58243;BME280;50118;53.232;8.252;2022-09-09T01:42:01;100644.38;;;11.49;100.00
58243;BME280;50118;53.232;8.252;2022-09-09T01:44:28;100637.06;;;11.51;100.00
58243;BME280;50118;53.232;8.252;2022-09-09T01:46:55;100647.09;;;11.57;100.00
58243;BME280;50118;53.232;8.252;2022-09-09T01:58:34;100637.16;;;11.68;100.00
58243;BME280;50118;53.232;8.252;2022-09-09T02:01:06;100633.53;;;11.69;100.00
58243;BME280;50118;53.232;8.252;2022-09-09T02:04:08;100620.94;;;11.61;100.00
58243;BME280;50118;53.232;8.252;2022-09-09T02:06:38;100629.50;;;11.65;100.00
58243;BME280;50118;53.232;8.252;2022-09-09T02:09:07;100637.16;;;11.68;100.00
58243;BME280;50118;53.232;8.252;2022-09-09T02:11:35;100631.22;;;11.74;100.00
58243;BME280;50118;53.232;8.252;2022-09-09T02:17:37;100635.97;;;11.80;100.00
58243;BME280;50118;53.232;8.252;2022-09-09T02:20:07;100632.91;;;11.75;100.00
58243;BME280;50118;53.232;8.252;2022-09-09T02:22:35;100631.91;;;11.76;100.00
58243;BME280;50118;53.232;8.252;2022-09-09T02:25:07;100630.25;;;11.75;100.00
58243;BME280;50118;53.232;8.252;2022-09-09T02:27:40;100627.44;;;11.76;100.00
58243;BME280;50118;53.232;8.252;2022-09-09T02:30:09;100625.59;;;11.77;100.00
58243;BME280;50118;53.232;8.252;2022-09-09T02:32:44;100628.72;;;11.72;100.00
58243;BME280;50118;53.232;8.252;2022-09-09T02:35:14;100625.22;;;11.72;100.00
58243;BME280;50118;53.232;8.252;2022-09-09T02:41:12;100621.16;;;11.68;100.00
58243;BME280;50118;53.232;8.252;2022-09-09T02:43:37;100620.84;;;11.71;100.00
58243;BME280;50118;53.232;8.252;2022-09-09T02:52:06;100635.75;;;11.73;100.00
58243;BME280;50118;53.232;8.252;2022-09-09T02:54:34;100630.19;;;11.67;100.00
58243;BME280;50118;53.232;8.252;2022-09-09T02:57:13;100628.50;;;11.66;100.00
58243;BME280;50118;53.232;8.252;2022-09-09T02:59:43;100625.69;;;11.67;100.00
58243;BME280;50118;53.232;8.252;2022-09-09T03:02:43;100623.91;;;11.76;100.00
58243;BME280;50118;53.232;8.252;2022-09-09T03:05:10;100625.59;;;11.77;100.00
58243;BME280;50118;53.232;8.252;2022-09-09T03:07:38;100628.63;;;11.82;100.00
58243;BME280;50118;53.232;8.252;2022-09-09T03:10:05;100631.97;;;11.84;100.00
58243;BME280;50118;53.232;8.252;2022-09-09T03:12:31;100626.78;;;11.83;100.00
58243;BME280;50118;53.232;8.252;2022-09-09T03:14:58;100632.59;;;11.78;100.00
58243;BME280;50118;53.232;8.252;2022-09-09T03:17:24;100631.00;;;11.85;100.00
58243;BME280;50118;53.232;8.252;2022-09-09T03:19:50;100626.09;;;11.81;100.00
58243;BME280;50118;53.232;8.252;2022-09-09T03:22:35;100625.28;;;11.80;100.00
58243;BME280;50118;53.232;8.252;2022-09-09T03:25:01;100626.94;;;11.81;100.00
58243;BME280;50118;53.232;8.252;2022-09-09T03:27:31;100630.50;;;11.90;100.00
58243;BME280;50118;53.232;8.252;2022-09-09T03:30:26;100636.22;;;11.95;100.00
58243;BME280;50118;53.232;8.252;2022-09-09T03:32:52;100627.91;;;11.98;100.00
58243;BME280;50118;53.232;8.252;2022-09-09T03:35:18;100631.81;;;12.04;100.00
58243;BME280;50118;53.232;8.252;2022-09-09T03:37:47;100635.88;;;12.16;100.00
58243;BME280;50118;53.232;8.252;2022-09-09T03:43:44;100643.97;;;12.32;100.00
58243;BME280;50118;53.232;8.252;2022-09-09T03:46:10;100636.66;;;12.35;100.00
58243;BME280;50118;53.232;8.252;2022-09-09T03:48:36;100635.16;;;12.40;100.00
58243;BME280;50118;53.232;8.252;2022-09-09T03:51:01;100634.34;;;12.48;100.00
58243;BME280;50118;53.232;8.252;2022-09-09T03:53:28;100637.72;;;12.50;100.00
58243;BME280;50118;53.232;8.252;2022-09-09T03:55:55;100634.34;;;12.48;100.00
58243;BME280;50118;53.232;8.252;2022-09-09T03:58:25;100643.06;;;12.50;100.00
58243;BME280;50118;53.232;8.252;2022-09-09T04:01:05;100643.06;;;12.50;100.00
58243;BME280;50118;53.232;8.252;2022-09-09T04:03:31;100650.22;;;12.49;100.00
58243;BME280;50118;53.232;8.252;2022-09-09T04:05:59;100645.38;;;12.45;100.00
58243;BME280;50118;53.232;8.252;2022-09-09T04:08:25;100653.75;;;12.50;100.00
58243;BME280;50118;53.232;8.252;2022-09-09T04:10:51;100659.31;;;12.57;100.00
58243;BME280;50118;53.232;8.252;2022-09-09T04:13:17;100658.75;;;12.53;100.00
58243;BME280;50118;53.232;8.252;2022-09-09T04:15:50;100660.44;;;12.54;100.00
58243;BME280;50118;53.232;8.252;2022-09-09T04:18:16;100661.81;;;12.58;100.00
58243;BME280;50118;53.232;8.252;2022-09-09T04:20:41;100658.13;;;12.59;100.00
58243;BME280;50118;53.232;8.252;2022-09-09T04:23:08;100656.47;;;12.58;100.00
58243;BME280;50118;53.232;8.252;2022-09-09T04:25:34;100655.09;;;12.54;100.00
58243;BME280;50118;53.232;8.252;2022-09-09T04:27:59;100657.47;;;12.57;100.00
58243;BME280;50118;53.232;8.252;2022-09-09T04:30:25;100661.44;;;12.53;100.00
58243;BME280;50118;53.232;8.252;2022-09-09T04:32:52;100670.81;;;12.57;100.00
58243;BME280;50118;53.232;8.252;2022-09-09T04:35:17;100660.25;;;12.47;100.00
58243;BME280;50118;53.232;8.252;2022-09-09T04:37:45;100664.44;;;12.50;100.00
58243;BME280;50118;53.232;8.252;2022-09-09T04:40:12;100660.25;;;12.47;100.00
58243;BME280;50118;53.232;8.252;2022-09-09T04:42:38;100662.75;;;12.49;100.00
58243;BME280;50118;53.232;8.252;2022-09-09T04:45:13;100668.56;;;12.44;100.00
58243;BME280;50118;53.232;8.252;2022-09-09T04:47:38;100672.78;;;12.47;100.00
58243;BME280;50118;53.232;8.252;2022-09-09T04:50:04;100670.72;;;12.41;100.00
58243;BME280;50118;53.232;8.252;2022-09-09T04:55:36;100670.72;;;12.41;100.00
58243;BME280;50118;53.232;8.252;2022-09-09T04:58:23;100667.91;;;12.42;100.00
58243;BME280;50118;53.232;8.252;2022-09-09T05:00:49;100671.69;;;12.31;100.00
58243;BME280;50118;53.232;8.252;2022-09-09T05:03:16;100685.72;;;12.33;100.00
58243;BME280;50118;53.232;8.252;2022-09-09T05:05:41;100679.53;;;12.33;100.00
58243;BME280;50118;53.232;8.252;2022-09-09T05:08:08;100688.03;;;12.28;100.00
58243;BME280;50118;53.232;8.252;2022-09-09T05:10:39;100690.38;;;12.31;100.00
58243;BME280;50118;53.232;8.252;2022-09-09T05:13:05;100689.38;;;12.32;100.00
58243;BME280;50118;53.232;8.252;2022-09-09T05:15:32;100690.69;;;12.28;100.00
58243;BME280;50118;53.232;8.252;2022-09-09T05:18:01;100694.03;;;12.30;100.00
58243;BME280;50118;53.232;8.252;2022-09-09T05:20:28;100687.19;;;12.28;100.00
58243;BME280;50118;53.232;8.252;2022-09-09T05:22:54;100695.34;;;12.26;100.00
58243;BME280;50118;53.232;8.252;2022-09-09T05:25:20;100695.34;;;12.26;100.00
58243;BME280;50118;53.232;8.252;2022-09-09T05:27:47;100699.00;;;12.25;100.00
58243;BME280;50118;53.232;8.252;2022-09-09T05:30:33;100703.22;;;12.28;100.00
58243;BME280;50118;53.232;8.252;2022-09-09T05:32:59;100706.78;;;12.37;100.00
58243;BME280;50118;53.232;8.252;2022-09-09T05:35:25;100703.09;;;12.38;100.00
58243;BME280;50118;53.232;8.252;2022-09-09T05:37:51;100702.69;;;12.50;100.00
58243;BME280;50118;53.232;8.252;2022-09-09T05:40:16;100700.72;;;12.61;100.00
58243;BME280;50118;53.232;8.252;2022-09-09T05:42:42;100698.25;;;12.67;100.00
58243;BME280;50118;53.232;8.252;2022-09-09T05:45:08;100709.25;;;12.64;100.00
58243;BME280;50118;53.232;8.252;2022-09-09T05:47:35;100699.94;;;12.68;100.00
58243;BME280;50118;53.232;8.252;2022-09-09T05:50:03;100712.28;;;12.69;100.00
58243;BME280;50118;53.232;8.252;2022-09-09T05:52:29;100702.63;;;12.77;100.00
58243;BME280;50118;53.232;8.252;2022-09-09T05:54:54;100709.38;;;12.97;100.00
58243;BME280;50118;53.232;8.252;2022-09-09T05:57:22;100712.25;;;13.04;100.00
58243;BME280;50118;53.232;8.252;2022-09-09T05:59:48;100710.16;;;13.24;100.00
58243;BME280;50118;53.232;8.252;2022-09-09T06:02:13;100708.19;;;13.34;100.00
58243;BME280;50118;53.232;8.252;2022-09-09T06:04:39;100711.06;;;13.49;100.00
58243;BME280;50118;53.232;8.252;2022-09-09T06:07:05;100720.47;;;13.70;100.00
58243;BME280;50118;53.232;8.252;2022-09-09T06:09:31;100715.63;;;13.90;100.00
58243;BME280;50118;53.232;8.252;2022-09-09T06:12:00;100711.25;;;13.97;100.00
58243;BME280;50118;53.232;8.252;2022-09-09T06:14:25;100720.66;;;13.93;100.00
58243;BME280;50118;53.232;8.252;2022-09-09T06:16:52;100714.28;;;13.94;100.00
58243;BME280;50118;53.232;8.252;2022-09-09T06:19:17;100709.88;;;14.42;100.00
58243;BME280;50118;53.232;8.252;2022-09-09T06:21:43;100707.81;;;15.40;100.00
58243;BME280;50118;53.232;8.252;2022-09-09T06:28:06;100706.59;;;16.12;100.00
58243;BME280;50118;53.232;8.252;2022-09-09T06:34:10;100696.56;;;16.05;100.00
58243;BME280;50118;53.232;8.252;2022-09-09T06:36:38;100702.25;;;16.11;100.00
58243;BME280;50118;53.232;8.252;2022-09-09T06:39:13;100698.38;;;15.90;100.00
58243;BME280;50118;53.232;8.252;2022-09-09T06:41:41;100699.50;;;15.73;100.00
58243;BME280;50118;53.232;8.252;2022-09-09T06:47:02;100690.25;;;15.52;100.00
58243;BME280;50118;53.232;8.252;2022-09-09T06:49:27;100700.25;;;15.12;100.00
58243;BME280;50118;53.232;8.252;2022-09-09T06:54:57;100689.84;;;15.17;100.00
58243;BME280;50118;53.232;8.252;2022-09-09T06:57:27;100698.22;;;15.14;100.00
58243;BME280;50118;53.232;8.252;2022-09-09T06:59:52;100700.13;;;15.05;100.00
58243;BME280;50118;53.232;8.252;2022-09-09T07:05:16;100694.28;;;15.02;100.00
58243;BME280;50118;53.232;8.252;2022-09-09T07:07:42;100705.69;;;14.96;100.00
58243;BME280;50118;53.232;8.252;2022-09-09T07:10:08;100712.38;;;15.00;100.00
58243;BME280;50118;53.232;8.252;2022-09-09T07:12:34;100703.16;;;15.02;100.00
58243;BME280;50118;53.232;8.252;2022-09-09T07:14:59;100704.28;;;15.08;100.00
58243;BME280;50118;53.232;8.252;2022-09-09T07:17:25;100709.31;;;15.11;100.00
58243;BME280;50118;53.232;8.252;2022-09-09T07:19:53;100715.81;;;15.17;100.00
58243;BME280;50118;53.232;8.252;2022-09-09T07:22:39;100711.84;;;15.36;100.00
58243;BME280;50118;53.232;8.252;2022-09-09T07:25:09;100708.88;;;15.54;100.00
58243;BME280;50118;53.232;8.252;2022-09-09T07:31:22;100709.97;;;16.43;100.00
58243;BME280;50118;53.232;8.252;2022-09-09T07:33:48;100706.25;;;16.59;100.00
58243;BME280;50118;53.232;8.252;2022-09-09T07:43:33;100715.81;;;16.92;100.00
58243;BME280;50118;53.232;8.252;2022-09-09T07:45:37;100723.50;;;16.80;100.00
58243;BME280;50118;53.232;8.252;2022-09-09T07:48:08;100714.97;;;16.76;100.00
58243;BME280;50118;53.232;8.252;2022-09-09T07:50:45;100719.72;;;16.74;100.00
58243;BME280;50118;53.232;8.252;2022-09-09T07:53:13;100713.13;;;16.62;100.00
58243;BME280;50118;53.232;8.252;2022-09-09T07:58:37;100712.00;;;16.71;100.00
58243;BME280;50118;53.232;8.252;2022-09-09T08:01:20;100713.50;;;16.89;100.00
58243;BME280;50118;53.232;8.252;2022-09-09T08:03:51;100714.22;;;17.12;100.00
58243;BME280;50118;53.232;8.252;2022-09-09T08:06:17;100714.00;;;17.29;100.00
58243;BME280;50118;53.232;8.252;2022-09-09T08:08:43;100708.25;;;17.32;100.00
58243;BME280;50118;53.232;8.252;2022-09-09T08:11:12;100708.63;;;17.72;100.00
58243;BME280;50118;53.232;8.252;2022-09-09T08:13:40;100705.28;;;18.13;100.00
58243;BME280;50118;53.232;8.252;2022-09-09T08:16:12;100712.25;;;18.29;100.00
58243;BME280;50118;53.232;8.252;2022-09-09T08:18:41;100709.13;;;18.25;100.00
58243;BME280;50118;53.232;8.252;2022-09-09T08:23:33;100702.44;;;18.21;100.00
58243;BME280;50118;53.232;8.252;2022-09-09T08:26:09;100697.53;;;18.32;100.00
58243;BME280;50118;53.232;8.252;2022-09-09T08:28:35;100700.16;;;18.53;97.91
58243;BME280;50118;53.232;8.252;2022-09-09T08:31:13;100698.94;;;18.62;100.00
58243;BME280;50118;53.232;8.252;2022-09-09T08:33:39;100699.50;;;18.86;98.10
58243;BME280;50118;53.232;8.252;2022-09-09T08:36:05;100704.63;;;19.16;97.18
58243;BME280;50118;53.232;8.252;2022-09-09T08:38:32;100714.19;;;19.25;94.43
58243;BME280;50118;53.232;8.252;2022-09-09T08:43:51;100718.22;;;19.49;91.99
58243;BME280;50118;53.232;8.252;2022-09-09T08:51:48;100719.53;;;19.05;88.07
58243;BME280;50118;53.232;8.252;2022-09-09T08:54:15;100716.56;;;18.93;89.52
58243;BME280;50118;53.232;8.252;2022-09-09T08:56:40;100713.94;;;19.13;90.68
58243;BME280;50118;53.232;8.252;2022-09-09T08:59:09;100709.22;;;19.29;89.25
58243;BME280;50118;53.232;8.252;2022-09-09T09:02:21;100712.63;;;19.64;87.46
58243;BME280;50118;53.232;8.252;2022-09-09T09:07:55;100724.13;;;20.13;88.32
58243;BME280;50118;53.232;8.252;2022-09-09T09:12:54;100726.84;;;20.06;83.12
58243;BME280;50118;53.232;8.252;2022-09-09T09:15:25;100735.56;;;20.08;83.83
58243;BME280;50118;53.232;8.252;2022-09-09T09:17:51;100724.72;;;19.82;84.15
58243;BME280;50118;53.232;8.252;2022-09-09T09:20:23;100729.75;;;19.98;81.63
58243;BME280;50118;53.232;8.252;2022-09-09T09:22:56;100724.75;;;20.22;83.13
58243;BME280;50118;53.232;8.252;2022-09-09T09:25:35;100726.38;;;20.63;82.58
58243;BME280;50118;53.232;8.252;2022-09-09T09:28:17;100727.06;;;21.10;77.58
58243;BME280;50118;53.232;8.252;2022-09-09T09:30:49;100726.81;;;21.18;77.44
58243;BME280;50118;53.232;8.252;2022-09-09T09:35:58;100728.16;;;21.41;75.70
58243;BME280;50118;53.232;8.252;2022-09-09T09:38:26;100732.88;;;21.14;73.80
58243;BME280;50118;53.232;8.252;2022-09-09T09:40:55;100725.13;;;20.65;73.98
58243;BME280;50118;53.232;8.252;2022-09-09T09:43:34;100732.16;;;20.60;76.20
58243;BME280;50118;53.232;8.252;2022-09-09T09:46:03;100735.09;;;20.45;75.64
58243;BME280;50118;53.232;8.252;2022-09-09T09:48:29;100733.88;;;21.19;74.24
58243;BME280;50118;53.232;8.252;2022-09-09T09:51:00;100722.53;;;21.99;72.95
58243;BME280;50118;53.232;8.252;2022-09-09T09:53:29;100730.25;;;22.53;68.62
58243;BME280;50118;53.232;8.252;2022-09-09T09:56:00;100727.63;;;22.65;68.73
58243;BME280;50118;53.232;8.252;2022-09-09T09:58:33;100729.00;;;22.49;68.95
58243;BME280;50118;53.232;8.252;2022-09-09T10:01:00;100717.78;;;22.20;69.29
58243;BME280;50118;53.232;8.252;2022-09-09T10:03:31;100725.78;;;22.77;68.77
58243;BME280;50118;53.232;8.252;2022-09-09T10:05:57;100722.22;;;22.40;66.72
58243;BME280;50118;53.232;8.252;2022-09-09T10:08:27;100725.91;;;22.20;68.20
58243;BME280;50118;53.232;8.252;2022-09-09T10:16:45;100723.50;;;22.12;68.48
58243;BME280;50118;53.232;8.252;2022-09-09T10:19:25;100718.84;;;22.19;66.29
58243;BME280;50118;53.232;8.252;2022-09-09T10:24:32;100712.97;;;21.97;67.10
58243;BME280;50118;53.232;8.252;2022-09-09T10:27:10;100715.81;;;22.09;68.52
58243;BME280;50118;53.232;8.252;2022-09-09T10:29:52;100711.44;;;21.51;69.03
58243;BME280;50118;53.232;8.252;2022-09-09T10:34:58;100710.06;;;21.98;69.25
58243;BME280;50118;53.232;8.252;2022-09-09T10:40:25;100710.66;;;22.00;66.25
58243;BME280;50118;53.232;8.252;2022-09-09T10:43:00;100713.31;;;21.82;67.22
58243;BME280;50118;53.232;8.252;2022-09-09T10:45:56;100712.56;;;20.84;71.44
58243;BME280;50118;53.232;8.252;2022-09-09T10:48:31;100720.47;;;20.93;72.09
58243;BME280;50118;53.232;8.252;2022-09-09T10:56:41;100712.81;;;21.92;70.18
58243;BME280;50118;53.232;8.252;2022-09-09T10:59:19;100713.78;;;22.29;66.88
58243;BME280;50118;53.232;8.252;2022-09-09T11:02:02;100716.56;;;21.91;67.35
58243;BME280;50118;53.232;8.252;2022-09-09T11:04:38;100712.53;;;22.00;68.29
58243;BME280;50118;53.232;8.252;2022-09-09T11:07:09;100716.88;;;21.76;66.66
58243;BME280;50118;53.232;8.252;2022-09-09T11:09:47;100708.94;;;21.49;69.86
58243;BME280;50118;53.232;8.252;2022-09-09T11:12:18;100705.63;;;22.04;66.79
58243;BME280;50118;53.232;8.252;2022-09-09T11:14:53;100703.53;;;22.87;63.43
58243;BME280;50118;53.232;8.252;2022-09-09T11:17:44;100708.28;;;22.73;65.22
58243;BME280;50118;53.232;8.252;2022-09-09T11:20:13;100709.44;;;21.96;64.93
58243;BME280;50118;53.232;8.252;2022-09-09T11:22:53;100706.22;;;22.31;67.63
58243;BME280;50118;53.232;8.252;2022-09-09T11:37:21;100722.53;;;20.90;71.80
58243;BME280;50118;53.232;8.252;2022-09-09T11:42:40;100719.66;;;21.31;68.42
58243;BME280;50118;53.232;8.252;2022-09-09T11:45:26;100707.63;;;22.15;66.14
58243;BME280;50118;53.232;8.252;2022-09-09T11:47:59;100710.94;;;22.61;65.75
58243;BME280;50118;53.232;8.252;2022-09-09T11:50:36;100720.00;;;22.73;62.95
58243;BME280;50118;53.232;8.252;2022-09-09T11:55:40;100716.50;;;21.97;65.12
58243;BME280;50118;53.232;8.252;2022-09-09T11:58:15;100707.66;;;22.09;65.96
58243;BME280;50118;53.232;8.252;2022-09-09T12:00:46;100706.31;;;21.93;68.96
58243;BME280;50118;53.232;8.252;2022-09-09T12:03:33;100715.53;;;21.60;68.53
58243;BME280;50118;53.232;8.252;2022-09-09T12:08:42;100701.59;;;20.73;73.06
58243;BME280;50118;53.232;8.252;2022-09-09T12:11:08;100713.00;;;20.81;74.37
58243;BME280;50118;53.232;8.252;2022-09-09T12:13:34;100701.38;;;20.74;73.71
58243;BME280;50118;53.232;8.252;2022-09-09T12:16:00;100705.91;;;20.80;74.36
58243;BME280;50118;53.232;8.252;2022-09-09T12:18:39;100715.94;;;20.53;74.58
58243;BME280;50118;53.232;8.252;2022-09-09T12:23:56;100727.22;;;20.43;77.35
58243;BME280;50118;53.232;8.252;2022-09-09T12:37:02;100731.84;;;20.16;81.16
58243;BME280;50118;53.232;8.252;2022-09-09T12:39:35;100722.44;;;20.19;81.42
58243;BME280;50118;53.232;8.252;2022-09-09T12:42:03;100728.28;;;20.02;84.30
58243;BME280;50118;53.232;8.252;2022-09-09T12:44:29;100720.16;;;20.02;90.12
58243;BME280;50118;53.232;8.252;2022-09-09T12:47:01;100717.25;;;19.77;92.84
58243;BME280;50118;53.232;8.252;2022-09-09T12:49:33;100715.59;;;19.83;94.88
58243;BME280;50118;53.232;8.252;2022-09-09T12:52:21;100713.69;;;19.63;99.02
58243;BME280;50118;53.232;8.252;2022-09-09T12:54:48;100709.34;;;19.75;100.00
58243;BME280;50118;53.232;8.252;2022-09-09T12:57:16;100707.91;;;19.80;100.00
58243;BME280;50118;53.232;8.252;2022-09-09T12:59:43;100703.94;;;19.75;100.00
58243;BME280;50118;53.232;8.252;2022-09-09T13:02:22;100714.13;;;19.93;100.00
58243;BME280;50118;53.232;8.252;2022-09-09T13:04:48;100711.22;;;19.88;100.00
58243;BME280;50118;53.232;8.252;2022-09-09T13:07:16;100704.31;;;19.72;95.95
58243;BME280;50118;53.232;8.252;2022-09-09T13:09:43;100704.78;;;19.83;98.21
58243;BME280;50118;53.232;8.252;2022-09-09T13:12:26;100708.94;;;19.78;93.64
58243;BME280;50118;53.232;8.252;2022-09-09T13:14:54;100697.84;;;19.47;90.00
58243;BME280;50118;53.232;8.252;2022-09-09T13:17:23;100695.19;;;19.60;94.07
58243;BME280;50118;53.232;8.252;2022-09-09T13:19:50;100695.81;;;19.62;91.82
58243;BME280;50118;53.232;8.252;2022-09-09T13:25:05;100709.28;;;19.49;87.47
58243;BME280;50118;53.232;8.252;2022-09-09T13:27:33;100713.84;;;19.41;88.68
58243;BME280;50118;53.232;8.252;2022-09-09T13:30:00;100710.09;;;19.42;85.45
58243;BME280;50118;53.232;8.252;2022-09-09T13:32:27;100721.72;;;19.36;86.87
58243;BME280;50118;53.232;8.252;2022-09-09T13:35:00;100723.16;;;19.32;89.11
58243;BME280;50118;53.232;8.252;2022-09-09T13:37:37;100727.53;;;19.33;86.28
58243;BME280;50118;53.232;8.252;2022-09-09T13:40:17;100723.81;;;19.34;87.84
58243;BME280;50118;53.232;8.252;2022-09-09T13:42:44;100735.03;;;19.38;88.90
58243;BME280;50118;53.232;8.252;2022-09-09T13:45:21;100730.81;;;19.22;88.60
58243;BME280;50118;53.232;8.252;2022-09-09T13:47:46;100731.47;;;19.24;89.84
58243;BME280;50118;53.232;8.252;2022-09-09T13:52:49;100742.88;;;19.26;88.44
58243;BME280;50118;53.232;8.252;2022-09-09T13:55:17;100734.06;;;19.04;88.95
58243;BME280;50118;53.232;8.252;2022-09-09T13:57:59;100733.66;;;19.00;90.96
58243;BME280;50118;53.232;8.252;2022-09-09T14:00:28;100730.78;;;19.15;90.46
58243;BME280;50118;53.232;8.252;2022-09-09T14:02:54;100731.19;;;19.12;91.10
58243;BME280;50118;53.232;8.252;2022-09-09T14:05:20;100736.34;;;19.00;91.00
58243;BME280;50118;53.232;8.252;2022-09-09T14:07:48;100725.81;;;19.12;91.00
58243;BME280;50118;53.232;8.252;2022-09-09T14:10:14;100730.69;;;18.89;92.84
58243;BME280;50118;53.232;8.252;2022-09-09T14:12:40;100734.66;;;18.99;91.25
58243;BME280;50118;53.232;8.252;2022-09-09T14:15:07;100728.19;;;18.87;91.75
58243;BME280;50118;53.232;8.252;2022-09-09T14:17:35;100724.91;;;18.63;94.99
58243;BME280;50118;53.232;8.252;2022-09-09T14:20:03;100720.03;;;18.80;95.19
58243;BME280;50118;53.232;8.252;2022-09-09T14:22:30;100724.44;;;18.88;94.17
58243;BME280;50118;53.232;8.252;2022-09-09T14:24:56;100718.81;;;18.83;88.33
58243;BME280;50118;53.232;8.252;2022-09-09T14:27:22;100717.13;;;18.82;84.32
58243;BME280;50118;53.232;8.252;2022-09-09T14:29:48;100715.84;;;18.78;85.33
58243;BME280;50118;53.232;8.252;2022-09-09T14:32:13;100711.88;;;18.74;84.46
58243;BME280;50118;53.232;8.252;2022-09-09T14:34:39;100706.88;;;18.71;84.01
58243;BME280;50118;53.232;8.252;2022-09-09T14:37:05;100710.22;;;18.73;82.74
58243;BME280;50118;53.232;8.252;2022-09-09T14:39:31;100706.41;;;18.60;81.28
58243;BME280;50118;53.232;8.252;2022-09-09T14:41:57;100708.56;;;18.72;81.22
58243;BME280;50118;53.232;8.252;2022-09-09T14:44:32;100703.56;;;18.69;81.36
58243;BME280;50118;53.232;8.252;2022-09-09T14:46:58;100700.25;;;18.66;82.36
58243;BME280;50118;53.232;8.252;2022-09-09T14:49:24;100707.00;;;18.49;83.99
58243;BME280;50118;53.232;8.252;2022-09-09T14:51:49;100694.59;;;18.26;84.23
58243;BME280;50118;53.232;8.252;2022-09-09T14:54:15;100695.03;;;18.30;85.47
58243;BME280;50118;53.232;8.252;2022-09-09T14:56:41;100695.97;;;18.44;84.61
58243;BME280;50118;53.232;8.252;2022-09-09T14:59:07;100690.63;;;18.57;85.06
58243;BME280;50118;53.232;8.252;2022-09-09T15:01:32;100698.94;;;18.62;85.17
58243;BME280;50118;53.232;8.252;2022-09-09T15:04:01;100696.44;;;18.61;83.76
58243;BME280;50118;53.232;8.252;2022-09-09T15:06:28;100696.50;;;18.67;84.89
58243;BME280;50118;53.232;8.252;2022-09-09T15:08:55;100693.41;;;18.71;83.67
58243;BME280;50118;53.232;8.252;2022-09-09T15:11:26;100691.81;;;18.48;85.77
58243;BME280;50118;53.232;8.252;2022-09-09T15:13:53;100694.38;;;18.56;86.18
58243;BME280;50118;53.232;8.252;2022-09-09T15:16:21;100691.91;;;18.61;84.49
58243;BME280;50118;53.232;8.252;2022-09-09T15:18:51;100693.56;;;18.62;85.29
58243;BME280;50118;53.232;8.252;2022-09-09T15:21:19;100693.56;;;18.62;84.64
58243;BME280;50118;53.232;8.252;2022-09-09T15:23:46;100688.16;;;18.62;83.44
58243;BME280;50118;53.232;8.252;2022-09-09T15:26:13;100688.59;;;18.59;83.47
58243;BME280;50118;53.232;8.252;2022-09-09T15:28:43;100695.16;;;18.50;84.45
58243;BME280;50118;53.232;8.252;2022-09-09T15:31:18;100693.75;;;18.54;84.01
58243;BME280;50118;53.232;8.252;2022-09-09T15:33:52;100684.22;;;18.58;84.37
58243;BME280;50118;53.232;8.252;2022-09-09T15:36:25;100690.38;;;18.52;84.65
58243;BME280;50118;53.232;8.252;2022-09-09T15:38:52;100692.34;;;18.65;84.20
58243;BME280;50118;53.232;8.252;2022-09-09T15:41:20;100691.88;;;18.55;84.39
58243;BME280;50118;53.232;8.252;2022-09-09T15:43:47;100691.03;;;18.54;86.22
58243;BME280;50118;53.232;8.252;2022-09-09T15:48:45;100672.94;;;18.48;87.79
58243;BME280;50118;53.232;8.252;2022-09-09T15:51:11;100669.97;;;18.08;89.74
58243;BME280;50118;53.232;8.252;2022-09-09T15:53:38;100670.47;;;18.18;89.87
58243;BME280;50118;53.232;8.252;2022-09-09T15:56:07;100675.66;;;18.20;89.88